Terminal Aerodrome Forecast
Issued by NWS Sterling, VA

Current Version | Previous Version | Graphics & Text | Print | Product List | Glossary On
Versions: 1 2 3 4 5 6 7 8 9 10 11 12 13 14 15 16 17 18 19 20
000
FTUS41 KLWX 291813 AAA
TAFMRB
TAF AMD
KMRB 291813Z 2918/3018 24004KT P6SM OVC007
     FM300100 00000KT 3SM BR BKN003
     FM300900 00000KT 2SM -SHRA BR OVC003
     FM301200 13004KT 1SM SHRA BR OVC003
     FM301400 16008KT 1 1/2SM SHRA BR OVC003=

USA.gov is the U.S. government's official web portal to all federal, state and local government web resources and services.